Latest Weather Observations for Young

IDN60801

Issued at 7:05 pm EST Wednesday 23 April 2014 (issued every 30 minutes, with the page automatically refreshed every 10 minutes)

About weather observations | Map of weather stations | Latest weather observations for NSW | Other Formats
Station Details ID: 073138 Name: YOUNG AIRPORT Lat: -34.25 Lon: 148.25 Height: 379.6 m
Data from the previous 72 hours. | See also: Recent months at Young
Date/Time
EST
Temp
°C
App
Temp
°C
Dew
Point
Rel
Hum
%
Delta-T
°C
Wind Press
QNH
hPa
Press
MSL
hPa
Rain
since 9 am
mm
Dir
 
Spd
km/h
Gust
km/h
Spd
kts
Gust
kts
23/07:00pm 12.7 12.6 9.5 81 1.7 S 0 0 0 0 1015.5 1014.9 0.0
23/06:30pm 13.9 13.5 9.9 77 2.1 S 2 7 1 4 1015.5 - 0.0
23/06:00pm 16.0 14.8 10.3 69 3.1 N 7 7 4 4 1015.3 1014.7 0.0
23/05:30pm 17.1 16.2 11.2 68 3.2 N 7 9 4 5 1015.2 - 0.0
23/05:00pm 19.9 19.2 11.9 60 4.5 N 7 9 4 5 1015.1 1014.5 0.0
23/04:30pm 21.2 20.4 11.8 55 5.3 NNW 7 9 4 5 1015.2 - 0.0
23/04:00pm 21.6 20.3 11.3 52 5.8 N 9 13 5 7 1015.1 1014.5 0.0
23/03:30pm 22.5 20.2 10.6 47 6.7 N 13 17 7 9 1015.2 - 0.0
23/03:00pm 22.4 20.5 11.8 51 6.1 N 13 19 7 10 1015.2 1014.6 0.0
23/02:30pm 22.4 20.1 10.5 47 6.6 N 13 20 7 11 1015.4 - 0.0
23/02:00pm 22.2 20.3 10.4 47 6.6 NE 11 15 6 8 1015.7 1015.2 0.0
23/01:30pm 22.1 20.7 10.9 49 6.3 N 9 15 5 8 1016.0 - 0.0
23/01:00pm 21.4 20.0 10.9 51 5.9 ENE 9 15 5 8 1016.4 1015.9 0.0
23/12:30pm 21.1 19.9 10.3 50 6.0 ENE 7 11 4 6 1016.9 - 0.0
23/12:00pm 20.5 19.1 9.7 50 5.9 NE 7 13 4 7 1017.5 1016.9 0.0
23/11:30am 19.3 18.0 11.1 59 4.6 E 9 13 5 7 1018.0 - 0.0
23/11:00am 19.0 17.3 11.3 61 4.3 ESE 11 13 6 7 1018.5 1018.0 0.0
23/10:30am 16.9 15.4 12.0 73 2.7 SSW 11 13 6 7 1018.7 - 0.0
23/10:00am 17.2 16.5 11.9 71 3.0 S 7 11 4 6 1018.8 1018.3 0.0
23/09:30am 15.4 14.6 11.0 75 2.4 S 6 7 3 4 1018.8 - 0.0
23/09:00am 13.2 12.1 10.0 81 1.7 SSW 6 7 3 4 1018.8 1018.3 0.0
23/08:30am 12.0 10.7 9.2 83 1.4 S 6 7 3 4 1018.9 - 0.0
23/08:00am 10.4 9.2 9.6 95 0.4 SSW 6 7 3 4 1018.7 1018.2 0.0
23/07:30am 7.5 5.7 7.1 97 0.2 S 6 7 3 4 1018.4 - 0.0
23/07:00am 6.4 4.2 6.0 97 0.2 SW 7 9 4 5 1018.3 1017.8 0.0
23/06:30am 6.1 3.8 5.5 96 0.3 S 7 9 4 5 1018.0 - 0.0
23/06:00am 6.0 3.8 5.4 96 0.3 SSW 6 6 3 3 1018.1 1017.6 0.0
23/05:30am 6.0 3.9 5.6 97 0.2 SSW 6 7 3 4 1017.9 - 0.0
23/05:00am 5.4 3.2 5.1 98 0.1 S 6 7 3 4 1017.9 1017.4 0.0
23/04:30am 5.3 2.8 4.9 97 0.2 SW 7 9 4 5 1017.6 - 0.0
23/04:00am 5.1 2.8 4.7 97 0.2 S 6 7 3 4 1017.5 1016.9 0.0
23/03:30am 5.3 3.0 4.9 97 0.2 S 6 7 3 4 1017.3 - 0.0
23/03:00am 5.1 2.2 4.7 97 0.2 S 9 9 5 5 1017.6 1017.0 0.0
23/02:30am 5.1 2.6 4.7 97 0.2 SW 7 9 4 5 1017.5 - 0.0
23/02:00am 4.8 2.2 4.4 97 0.2 SSE 7 9 4 5 1017.7 1017.1 0.0
23/01:30am 5.0 2.5 4.6 97 0.2 SW 7 9 4 5 1017.7 - 0.0
23/01:00am 5.1 2.6 4.7 97 0.2 S 7 7 4 4 1018.1 1017.6 0.0
23/12:30am 5.2 2.9 4.6 96 0.3 SSW 6 7 3 4 1018.1 - 0.0
23/12:00am 5.4 2.9 4.8 96 0.3 SSW 7 9 4 5 1018.3 1017.8 0.0
 
Date/Time
EST
Temp
°C
App
Temp
°C
Dew
Point
Rel
Hum
%
Delta-T
°C
Wind Press
QNH
hPa
Press
MSL
hPa
Rain
since 9 am
mm
Dir
 
Spd
km/h
Gust
km/h
Spd
kts
Gust
kts
22/11:30pm 6.1 3.9 5.5 96 0.3 SW 6 9 3 5 1018.6 - 0.0
22/11:00pm 6.0 3.6 5.4 96 0.3 SSW 7 7 4 4 1018.8 1018.3 0.0
22/10:30pm 6.3 4.5 5.6 95 0.3 SW 4 7 2 4 1018.8 - 0.0
22/10:00pm 6.8 4.8 6.1 95 0.3 S 6 9 3 5 1019.1 1018.6 0.0
22/09:30pm 6.9 4.8 6.0 94 0.4 SSW 6 7 3 4 1019.0 - 0.0
22/09:00pm 7.2 5.3 6.5 95 0.3 SSW 6 7 3 4 1018.9 1018.4 0.0
22/08:30pm 7.6 6.1 6.9 95 0.3 S 4 7 2 4 1018.7 - 0.0
22/08:00pm 7.9 5.8 6.7 92 0.6 SSW 7 9 4 5 1018.7 1018.2 0.0
22/07:30pm 8.7 6.9 7.3 91 0.7 S 6 7 3 4 1018.9 - 0.0
22/07:00pm 9.9 8.2 8.3 90 0.8 S 7 7 4 4 1018.6 1018.1 0.0
22/06:30pm 11.1 9.5 8.8 86 1.2 SW 7 7 4 4 1018.4 - 0.0
22/06:00pm 12.2 10.8 9.0 81 1.6 SW 6 11 3 6 1018.1 1017.6 0.0
22/05:30pm 15.3 15.5 10.5 73 2.6 CALM 0 0 0 0 1017.8 - 0.0
22/05:00pm 16.7 15.1 10.3 66 3.4 NE 9 9 5 5 1017.3 1016.8 0.0
22/04:30pm 17.5 16.5 10.9 65 3.6 N 7 9 4 5 1017.6 - 0.0
22/04:00pm 18.3 16.6 9.9 58 4.5 N 9 11 5 6 1017.5 1016.9 0.0
22/03:30pm 19.6 18.9 8.6 49 5.8 W 2 7 1 4 1017.5 - 0.0
22/03:00pm 19.5 17.1 6.9 44 6.5 WNW 9 15 5 8 1017.6 1017.0 0.0
22/02:30pm 19.7 17.1 7.8 46 6.2 NW 11 17 6 9 1017.3 - 0.0
22/02:00pm 19.9 18.0 9.2 50 5.8 WNW 9 15 5 8 1017.3 1016.8 0.0
22/01:30pm 19.5 16.8 8.8 50 5.7 N 13 20 7 11 1017.6 - 0.0
22/01:00pm 19.7 17.3 8.7 49 5.8 NW 11 19 6 10 1017.9 1017.4 0.0
22/12:30pm 19.1 16.0 7.2 46 6.1 NNW 13 20 7 11 1018.4 - 0.0
22/12:00pm 18.7 15.7 7.5 48 5.8 NW 13 19 7 10 1018.7 1018.2 0.0
22/11:30am 18.6 16.6 8.8 53 5.2 NNW 9 15 5 8 1018.9 - 0.0
22/11:00am 18.2 15.6 7.9 51 5.3 NNW 11 19 6 10 1019.4 1018.9 0.0
22/10:30am 17.0 15.4 10.1 64 3.7 N 9 15 5 8 1019.7 - 0.0
22/10:00am 16.3 14.8 9.0 62 3.8 N 7 11 4 6 1019.9 1019.4 0.0
22/09:30am 14.9 15.0 10.3 74 2.5 CALM 0 6 0 3 1020.1 - 0.0
22/09:00am 11.6 10.2 9.0 84 1.3 SSW 6 7 3 4 1020.1 1019.7 0.0
22/08:30am 9.2 8.4 8.0 92 0.6 SSW 2 6 1 3 1020.0 - 0.0
22/08:00am 6.9 5.3 6.3 96 0.3 S 4 7 2 4 1019.9 1019.4 0.0
22/07:30am 5.2 2.8 5.1 99 0.0 S 7 9 4 5 1019.9 - 0.0
22/07:00am 3.9 1.2 3.6 98 0.1 SSW 7 9 4 5 1019.6 1019.1 0.0
22/06:30am 3.4 0.6 3.1 98 0.1 SW 7 9 4 5 1019.3 - 0.0
22/06:00am 3.5 0.9 3.1 97 0.2 S 6 7 3 4 1019.1 1018.6 0.0
22/05:30am 4.3 1.7 4.0 98 0.1 SSW 7 7 4 4 1019.1 - 0.0
22/05:00am 4.4 1.8 4.1 98 0.1 S 7 7 4 4 1018.9 1018.4 0.0
22/04:30am 4.5 1.9 4.2 98 0.1 SW 7 11 4 6 1019.0 - 0.0
22/04:00am 4.5 2.1 4.1 97 0.2 SSE 6 7 3 4 1018.7 1018.2 0.0
22/03:30am 4.9 2.4 4.6 98 0.1 SW 7 9 4 5 1018.9 - 0.0
22/03:00am 4.7 1.8 4.4 98 0.1 SE 9 13 5 7 1018.8 1018.3 0.0
22/02:30am 4.9 2.3 4.3 96 0.3 SSW 7 7 4 4 1019.2 - 0.0
22/02:00am 4.9 2.5 4.3 96 0.3 S 6 9 3 5 1019.3 1018.8 0.0
22/01:30am 5.0 2.5 4.6 97 0.2 SW 7 7 4 4 1019.6 - 0.0
22/01:00am 4.8 2.2 4.2 96 0.3 S 7 7 4 4 1019.9 1019.4 0.0
22/12:30am 4.4 1.9 3.8 96 0.3 S 6 7 3 4 1020.6 - 0.0
22/12:00am 4.6 2.0 4.0 96 0.3 S 7 9 4 5 1020.6 1020.1 0.0
 
Date/Time
EST
Temp
°C
App
Temp
°C
Dew
Point
Rel
Hum
%
Delta-T
°C
Wind Press
QNH
hPa
Press
MSL
hPa
Rain
since 9 am
mm
Dir
 
Spd
km/h
Gust
km/h
Spd
kts
Gust
kts
21/11:30pm 4.6 2.2 4.2 97 0.2 SSW 6 6 3 3 1020.7 - 0.0
21/11:00pm 4.7 2.1 4.0 95 0.3 S 7 9 4 5 1020.7 1020.2 0.0
21/10:30pm 5.0 2.6 4.1 94 0.4 SW 6 9 3 5 1020.9 - 0.0
21/10:00pm 5.6 3.3 4.9 95 0.3 SSW 6 7 3 4 1020.9 1020.4 0.0
21/09:30pm 5.8 3.5 4.9 94 0.4 SSW 6 7 3 4 1021.0 - 0.0
21/09:00pm 6.2 3.8 5.2 93 0.4 SSW 7 7 4 4 1020.9 1020.4 0.0
21/08:30pm 6.9 4.8 5.7 92 0.5 SSW 6 7 3 4 1020.7 - 0.0
21/08:00pm 7.5 5.5 6.1 91 0.6 SSW 6 7 3 4 1020.6 1020.1 0.0
21/07:30pm 8.2 6.1 6.5 89 0.8 SSW 7 7 4 4 1020.5 - 0.0
21/07:00pm 8.7 6.8 6.8 88 0.9 SSW 6 7 3 4 1020.3 1019.8 0.0
21/06:30pm 9.2 7.2 7.2 87 1.0 SW 7 9 4 5 1020.3 - 0.0
21/06:00pm 11.2 9.5 7.5 78 1.8 WSW 6 7 3 4 1019.9 1019.4 0.0
21/05:30pm 14.6 14.4 9.0 69 2.9 CALM 0 4 0 2 1019.7 - 0.0
21/05:00pm 16.3 14.7 7.8 57 4.3 SSW 6 7 3 4 1019.7 1019.2 0.0
21/04:30pm 16.5 14.6 6.9 53 4.8 S 6 7 3 4 1019.4 - 0.0
21/04:00pm 17.5 16.5 7.5 52 5.1 SE 2 7 1 4 1019.4 1018.9 0.0
21/03:30pm 17.4 15.8 8.0 54 4.9 SW 6 9 3 5 1019.5 - 0.0
21/03:00pm 17.8 16.0 7.2 50 5.4 WNW 6 11 3 6 1019.4 1018.9 0.0
21/02:30pm 17.1 14.7 7.2 52 5.0 NNW 9 15 5 8 1019.4 - 0.0
21/02:00pm 17.1 14.8 7.5 53 4.9 NNE 9 15 5 8 1019.3 1018.8 0.0
21/01:30pm 16.8 14.1 7.4 54 4.8 NE 11 20 6 11 1019.5 - 0.0
21/01:00pm 16.0 13.4 6.2 52 4.8 ENE 9 17 5 9 1019.8 1019.3 0.0
21/12:30pm 16.4 14.4 7.1 54 4.7 NE 7 13 4 7 1020.4 - 0.0
21/12:00pm 15.5 13.2 7.3 58 4.1 ENE 9 13 5 7 1020.6 1020.1 0.0
21/11:30am 14.8 12.0 5.1 52 4.7 NE 9 15 5 8 1021.3 - 0.0
21/11:00am 14.2 12.0 6.3 59 3.9 NE 7 13 4 7 1021.6 1021.1 0.0
21/10:30am 14.4 13.1 6.0 57 4.1 NE 2 6 1 3 1022.3 - 0.0
21/10:00am 13.3 11.2 5.7 60 3.6 SE 6 9 3 5 1022.3 1021.9 0.0
21/09:30am 11.9 10.6 7.8 76 2.0 SSE 4 9 2 5 1022.1 - 0.0
21/09:00am 9.6 7.9 7.4 86 1.1 SSW 6 7 3 4 1022.4 1022.0 0.0
21/08:30am 6.7 4.5 5.5 92 0.5 S 6 7 3 4 1022.2 - 0.0
21/08:00am 4.2 1.6 3.3 94 0.4 S 6 7 3 4 1022.3 1021.9 0.0
21/07:30am 2.3 -0.5 2.0 98 0.1 SSW 6 7 3 4 1021.7 - 0.0
21/07:00am 0.8 -2.2 0.5 98 0.1 S 6 9 3 5 1021.4 1020.9 0.0
21/06:30am 0.0 -3.4 -0.4 97 0.1 SSW 7 7 4 4 1021.1 - 0.0
21/06:00am 0.3 -3.0 -0.1 97 0.1 SSW 7 7 4 4 1020.9 1020.4 0.0
21/05:30am 0.6 -2.5 0.2 97 0.1 SSW 6 6 3 3 1020.6 - 0.0
21/05:00am 0.6 -2.5 0.2 97 0.1 SSW 6 9 3 5 1020.1 1019.7 0.0
21/04:30am 0.6 -1.7 0.2 97 0.1 S 2 7 1 4 1019.9 - 0.0
21/04:00am 0.8 -2.3 0.4 97 0.1 S 6 7 3 4 1019.7 1019.2 0.0
21/03:30am 1.1 -1.9 0.7 97 0.2 S 6 7 3 4 1019.7 - 0.0
21/03:00am 1.6 -1.3 1.3 98 0.1 SSW 6 6 3 3 1019.7 1019.2 0.0
21/02:30am 1.4 -1.8 1.0 97 0.2 S 7 9 4 5 1019.8 - 0.0
21/02:00am 1.9 -1.0 1.5 97 0.2 S 6 7 3 4 1020.1 1019.7 0.0
21/01:30am 2.2 -0.7 1.6 96 0.2 S 6 7 3 4 1020.3 - 0.0
21/01:00am 2.4 -0.4 1.8 96 0.2 S 6 7 3 4 1020.3 1019.8 0.0
21/12:30am 2.5 -0.3 1.9 96 0.2 SSW 6 9 3 5 1020.4 - 0.0
21/12:00am 2.7 -0.1 2.1 96 0.2 SSW 6 7 3 4 1020.3 1019.8 0.0
 
Date/Time
EST
Temp
°C
App
Temp
°C
Dew
Point
Rel
Hum
%
Delta-T
°C
Wind Press
QNH
hPa
Press
MSL
hPa
Rain
since 9 am
mm
Dir
 
Spd
km/h
Gust
km/h
Spd
kts
Gust
kts
20/11:30pm 2.9 0.9 2.2 95 0.3 S 2 7 1 4 1020.4 - 0.0
20/11:00pm 3.3 0.4 2.4 94 0.4 S 7 9 4 5 1020.5 1020.0 0.0
20/10:30pm 3.5 0.8 2.6 94 0.4 S 6 7 3 4 1020.6 - 0.0
20/10:00pm 3.6 0.9 2.7 94 0.4 S 6 7 3 4 1020.5 1020.0 0.0
20/09:30pm 4.2 1.6 3.2 93 0.4 S 6 7 3 4 1020.1 - 0.0
20/09:00pm 4.7 2.0 3.5 92 0.5 S 7 9 4 5 1020.0 1019.6 0.0
20/08:30pm 5.0 2.5 3.7 91 0.6 SSW 6 7 3 4 1020.0 - 0.0
20/08:00pm 5.7 4.4 4.2 90 0.7 CALM 0 0 0 0 1019.9 1019.4 0.0
20/07:30pm 6.6 5.4 4.8 88 0.8 CALM 0 6 0 3 1019.6 - 0.0

Other Formats:

Comma delimited format used in spreadsheet applications
http://www.bom.gov.au/fwo/IDN60801/IDN60801.94712.axf

JavaScript Object Notation format (JSON) in row-major order
http://www.bom.gov.au/fwo/IDN60801/IDN60801.94712.json